createdAt,value
2018-11-04T00:02:35.234Z,1000.38
2018-11-04T00:12:35.250Z,1000.30
2018-11-04T00:22:35.250Z,1000.20
2018-11-04T00:32:35.243Z,1000.11
2018-11-04T00:42:35.305Z,999.99
2018-11-04T00:52:35.254Z,999.96
2018-11-04T01:02:35.246Z,999.88
2018-11-04T01:12:35.204Z,999.83
2018-11-04T01:22:35.257Z,999.65
2018-11-04T01:32:35.186Z,999.46
2018-11-04T01:42:35.221Z,999.34
2018-11-04T01:52:35.276Z,999.26
2018-11-04T02:02:35.223Z,999.14
2018-11-04T02:12:35.262Z,998.96
2018-11-04T02:22:35.250Z,998.85
2018-11-04T02:32:35.312Z,998.75
2018-11-04T02:42:35.240Z,998.57
2018-11-04T02:52:35.244Z,998.54
2018-11-04T03:02:35.271Z,998.41
2018-11-04T03:12:35.370Z,998.41
2018-11-04T03:22:35.185Z,998.27
2018-11-04T03:32:35.320Z,998.29
2018-11-04T03:42:35.333Z,998.38
2018-11-04T03:52:36.187Z,998.36
2018-11-04T04:02:35.265Z,998.27
2018-11-04T04:12:35.191Z,998.24
2018-11-04T04:22:35.184Z,998.25
2018-11-04T04:32:35.163Z,998.22
2018-11-04T04:42:35.242Z,998.17
2018-11-04T04:52:35.221Z,998.07
2018-11-04T05:02:35.169Z,997.91
2018-11-04T05:12:35.234Z,997.85
2018-11-04T05:22:35.214Z,997.78
2018-11-04T05:32:35.136Z,997.64
2018-11-04T05:42:35.171Z,997.62
2018-11-04T05:52:35.186Z,997.61
2018-11-04T06:02:35.207Z,997.60
2018-11-04T06:12:35.148Z,997.48
2018-11-04T06:22:35.137Z,997.46
2018-11-04T06:32:35.159Z,997.65
2018-11-04T06:42:35.180Z,997.68
2018-11-04T06:52:35.205Z,997.71
2018-11-04T07:02:35.195Z,997.63
2018-11-04T07:12:35.146Z,997.61
2018-11-04T07:22:35.142Z,997.48
2018-11-04T07:32:35.243Z,997.51
2018-11-04T07:42:35.183Z,997.37
2018-11-04T07:52:35.665Z,997.36
2018-11-04T08:02:35.119Z,997.32
2018-11-04T08:12:35.188Z,997.30
2018-11-04T08:22:35.133Z,997.25
2018-11-04T08:32:35.213Z,997.06
2018-11-04T08:42:35.187Z,997.12
2018-11-04T08:52:35.375Z,997.00
2018-11-04T09:02:36.583Z,996.99
2018-11-04T09:12:42.628Z,996.96
2018-11-04T09:22:35.321Z,996.81
2018-11-04T09:32:39.308Z,996.69
2018-11-04T09:42:35.118Z,996.51
2018-11-04T09:52:35.285Z,996.35
2018-11-04T10:02:35.361Z,996.32
2018-11-04T10:12:35.134Z,996.16
2018-11-04T10:22:35.295Z,996.13
2018-11-04T10:32:35.246Z,996.07
2018-11-04T10:42:35.190Z,995.93
2018-11-04T10:52:35.201Z,995.79
2018-11-04T11:02:35.247Z,995.65
2018-11-04T11:12:35.291Z,995.39
2018-11-04T11:22:35.235Z,995.24
2018-11-04T11:32:35.193Z,994.92
2018-11-04T11:42:35.235Z,994.78
2018-11-04T11:52:35.235Z,994.64
2018-11-04T12:02:35.168Z,994.52
2018-11-04T12:12:35.190Z,994.40
2018-11-04T12:22:35.198Z,994.28
2018-11-04T12:32:35.254Z,994.14
2018-11-04T12:42:35.406Z,994.13
2018-11-04T12:52:35.207Z,993.92
2018-11-04T13:02:35.228Z,993.76
2018-11-04T13:12:35.198Z,993.67
2018-11-04T13:22:35.284Z,993.49
2018-11-04T13:32:36.141Z,993.41
2018-11-04T13:42:35.316Z,993.08
2018-11-04T13:52:35.209Z,992.92
2018-11-04T14:02:36.220Z,992.95
2018-11-04T14:12:35.294Z,992.88
2018-11-04T14:22:35.409Z,993.00
2018-11-04T14:32:35.221Z,992.90
2018-11-04T14:42:35.600Z,992.91
2018-11-04T14:52:35.262Z,992.84
2018-11-04T15:02:35.243Z,992.72
2018-11-04T15:12:35.318Z,992.62
2018-11-04T15:22:35.288Z,992.70
2018-11-04T15:32:35.292Z,992.65
2018-11-04T15:42:35.259Z,992.53
2018-11-04T15:52:35.482Z,992.68
2018-11-04T16:02:35.280Z,992.53
2018-11-04T16:12:35.578Z,992.43
2018-11-04T16:22:35.251Z,992.63
2018-11-04T16:32:35.269Z,992.48
2018-11-04T16:42:35.249Z,992.45
2018-11-04T16:52:35.405Z,992.31
2018-11-04T17:02:35.582Z,992.33
2018-11-04T17:12:35.292Z,992.27
2018-11-04T17:22:35.286Z,992.31
2018-11-04T17:32:35.211Z,992.30
2018-11-04T17:42:35.250Z,992.25
2018-11-04T17:52:35.280Z,992.12
2018-11-04T18:02:35.273Z,992.21
2018-11-04T18:12:35.201Z,992.09
2018-11-04T18:22:35.257Z,992.08
2018-11-04T18:32:35.220Z,992.13
2018-11-04T18:42:35.468Z,991.98
2018-11-04T18:52:35.346Z,991.82
2018-11-04T19:02:35.318Z,991.83
2018-11-04T19:12:35.284Z,991.84
2018-11-04T19:22:35.259Z,991.84
2018-11-04T19:32:35.204Z,991.80
2018-11-04T19:42:35.910Z,991.72
2018-11-04T19:52:35.598Z,991.70
2018-11-04T20:02:36.077Z,991.69
2018-11-04T20:12:35.257Z,991.67
2018-11-04T20:22:35.229Z,991.62
2018-11-04T20:32:35.252Z,991.55
2018-11-04T20:42:35.252Z,991.53
2018-11-04T20:52:35.167Z,991.48
2018-11-04T21:02:36.391Z,991.35
2018-11-04T21:12:35.253Z,991.38
2018-11-04T21:22:35.280Z,991.19
2018-11-04T21:32:35.240Z,991.33
2018-11-04T21:42:35.503Z,991.11
2018-11-04T21:52:35.279Z,991.09
2018-11-04T22:02:35.331Z,991.02
2018-11-04T22:12:35.223Z,990.95
2018-11-04T22:22:35.221Z,990.66
2018-11-04T22:32:35.241Z,990.46
2018-11-04T22:42:35.188Z,990.47
2018-11-04T22:52:35.168Z,990.43
2018-11-04T23:02:35.213Z,990.57
2018-11-04T23:12:36.192Z,990.51
2018-11-04T23:22:36.658Z,990.48
2018-11-04T23:32:42.501Z,990.50
2018-11-04T23:42:35.277Z,990.35
2018-11-04T23:52:35.278Z,990.23
